sensor_id;sensor_type;location;lat;lon;timestamp;temperature;humidity
19862;DHT22;10093;48.148;8.542;2023-09-30T00:00:25;13.80;99.90
19862;DHT22;10093;48.148;8.542;2023-09-30T00:02:51;13.70;99.90
19862;DHT22;10093;48.148;8.542;2023-09-30T00:05:17;13.60;99.90
19862;DHT22;10093;48.148;8.542;2023-09-30T00:07:45;13.40;99.90
19862;DHT22;10093;48.148;8.542;2023-09-30T00:10:11;13.40;99.90
19862;DHT22;10093;48.148;8.542;2023-09-30T00:12:37;13.30;99.90
19862;DHT22;10093;48.148;8.542;2023-09-30T00:15:06;13.30;99.90
19862;DHT22;10093;48.148;8.542;2023-09-30T00:17:32;13.30;99.90
19862;DHT22;10093;48.148;8.542;2023-09-30T00:19:57;13.50;99.90
19862;DHT22;10093;48.148;8.542;2023-09-30T00:22:24;13.50;99.90
19862;DHT22;10093;48.148;8.542;2023-09-30T00:24:50;13.40;99.90
19862;DHT22;10093;48.148;8.542;2023-09-30T00:27:16;13.40;99.90
19862;DHT22;10093;48.148;8.542;2023-09-30T00:29:41;13.30;99.90
19862;DHT22;10093;48.148;8.542;2023-09-30T00:32:07;13.20;99.90
19862;DHT22;10093;48.148;8.542;2023-09-30T00:34:36;13.20;99.90
19862;DHT22;10093;48.148;8.542;2023-09-30T00:37:01;13.30;99.90
19862;DHT22;10093;48.148;8.542;2023-09-30T00:39:27;13.20;99.90
19862;DHT22;10093;48.148;8.542;2023-09-30T00:41:57;13.00;99.90
19862;DHT22;10093;48.148;8.542;2023-09-30T00:44:25;13.10;99.90
19862;DHT22;10093;48.148;8.542;2023-09-30T00:46:50;13.20;99.90
19862;DHT22;10093;48.148;8.542;2023-09-30T00:49:16;13.20;99.90
19862;DHT22;10093;48.148;8.542;2023-09-30T00:51:44;13.00;99.90
19862;DHT22;10093;48.148;8.542;2023-09-30T00:54:10;12.90;99.90
19862;DHT22;10093;48.148;8.542;2023-09-30T00:56:39;12.70;99.90
19862;DHT22;10093;48.148;8.542;2023-09-30T00:59:08;12.40;99.90
19862;DHT22;10093;48.148;8.542;2023-09-30T01:01:34;12.20;99.90
19862;DHT22;10093;48.148;8.542;2023-09-30T01:04:00;12.00;99.90
19862;DHT22;10093;48.148;8.542;2023-09-30T01:06:26;11.90;99.90
19862;DHT22;10093;48.148;8.542;2023-09-30T01:08:52;11.80;99.90
19862;DHT22;10093;48.148;8.542;2023-09-30T01:11:18;11.60;99.90
19862;DHT22;10093;48.148;8.542;2023-09-30T01:13:44;11.50;99.90
19862;DHT22;10093;48.148;8.542;2023-09-30T01:16:10;11.50;99.90
19862;DHT22;10093;48.148;8.542;2023-09-30T01:18:37;11.40;99.90
19862;DHT22;10093;48.148;8.542;2023-09-30T01:21:05;11.40;99.90
19862;DHT22;10093;48.148;8.542;2023-09-30T01:23:34;11.60;99.90
19862;DHT22;10093;48.148;8.542;2023-09-30T01:26:08;11.50;99.90
19862;DHT22;10093;48.148;8.542;2023-09-30T01:28:34;11.50;99.90
19862;DHT22;10093;48.148;8.542;2023-09-30T01:31:00;11.50;99.90
19862;DHT22;10093;48.148;8.542;2023-09-30T01:33:26;11.30;99.90
19862;DHT22;10093;48.148;8.542;2023-09-30T01:35:53;11.20;99.90
19862;DHT22;10093;48.148;8.542;2023-09-30T01:38:18;11.10;99.90
19862;DHT22;10093;48.148;8.542;2023-09-30T01:40:45;11.00;99.90
19862;DHT22;10093;48.148;8.542;2023-09-30T01:43:12;10.90;99.90
19862;DHT22;10093;48.148;8.542;2023-09-30T01:45:42;10.90;99.90
19862;DHT22;10093;48.148;8.542;2023-09-30T01:48:08;11.10;99.90
19862;DHT22;10093;48.148;8.542;2023-09-30T01:50:39;11.20;99.90
19862;DHT22;10093;48.148;8.542;2023-09-30T01:53:06;11.20;99.90
19862;DHT22;10093;48.148;8.542;2023-09-30T01:55:32;11.50;99.90
19862;DHT22;10093;48.148;8.542;2023-09-30T01:57:58;11.50;99.90
19862;DHT22;10093;48.148;8.542;2023-09-30T02:00:24;11.40;99.90
19862;DHT22;10093;48.148;8.542;2023-09-30T02:02:49;11.40;99.90
19862;DHT22;10093;48.148;8.542;2023-09-30T02:05:15;11.10;99.90
19862;DHT22;10093;48.148;8.542;2023-09-30T02:07:41;11.10;99.90
19862;DHT22;10093;48.148;8.542;2023-09-30T02:10:07;11.00;99.90
19862;DHT22;10093;48.148;8.542;2023-09-30T02:12:33;10.90;99.90
19862;DHT22;10093;48.148;8.542;2023-09-30T02:14:58;11.00;99.90
19862;DHT22;10093;48.148;8.542;2023-09-30T02:17:25;10.90;99.90
19862;DHT22;10093;48.148;8.542;2023-09-30T02:19:50;11.30;99.90
19862;DHT22;10093;48.148;8.542;2023-09-30T02:22:16;11.40;99.90
19862;DHT22;10093;48.148;8.542;2023-09-30T02:24:42;11.40;99.90
19862;DHT22;10093;48.148;8.542;2023-09-30T02:27:08;11.50;99.90
19862;DHT22;10093;48.148;8.542;2023-09-30T02:29:33;11.70;99.90
19862;DHT22;10093;48.148;8.542;2023-09-30T02:31:59;11.60;99.90
19862;DHT22;10093;48.148;8.542;2023-09-30T02:34:25;11.60;99.90
19862;DHT22;10093;48.148;8.542;2023-09-30T02:36:50;11.50;99.90
19862;DHT22;10093;48.148;8.542;2023-09-30T02:39:17;11.40;99.90
19862;DHT22;10093;48.148;8.542;2023-09-30T02:41:43;11.20;99.90
19862;DHT22;10093;48.148;8.542;2023-09-30T02:44:09;11.00;99.90
19862;DHT22;10093;48.148;8.542;2023-09-30T02:46:34;11.00;99.90
19862;DHT22;10093;48.148;8.542;2023-09-30T02:49:03;11.10;99.90
19862;DHT22;10093;48.148;8.542;2023-09-30T02:51:29;11.20;99.90
19862;DHT22;10093;48.148;8.542;2023-09-30T02:53:55;11.10;99.90
19862;DHT22;10093;48.148;8.542;2023-09-30T02:56:21;11.10;99.90
19862;DHT22;10093;48.148;8.542;2023-09-30T02:58:50;11.00;99.90
19862;DHT22;10093;48.148;8.542;2023-09-30T03:01:17;11.00;99.90
19862;DHT22;10093;48.148;8.542;2023-09-30T03:03:43;10.90;99.90
19862;DHT22;10093;48.148;8.542;2023-09-30T03:06:10;10.90;99.90
19862;DHT22;10093;48.148;8.542;2023-09-30T03:08:36;11.00;99.90
19862;DHT22;10093;48.148;8.542;2023-09-30T03:11:02;11.00;99.90
19862;DHT22;10093;48.148;8.542;2023-09-30T03:13:27;11.10;99.90
19862;DHT22;10093;48.148;8.542;2023-09-30T03:15:56;11.40;99.90
19862;DHT22;10093;48.148;8.542;2023-09-30T03:18:22;11.40;99.90
19862;DHT22;10093;48.148;8.542;2023-09-30T03:20:57;11.40;99.90
19862;DHT22;10093;48.148;8.542;2023-09-30T03:23:28;11.30;99.90
19862;DHT22;10093;48.148;8.542;2023-09-30T03:25:59;11.40;99.90
19862;DHT22;10093;48.148;8.542;2023-09-30T03:28:26;11.50;99.90
19862;DHT22;10093;48.148;8.542;2023-09-30T03:30:52;11.60;99.90
19862;DHT22;10093;48.148;8.542;2023-09-30T03:33:17;11.70;99.90
19862;DHT22;10093;48.148;8.542;2023-09-30T03:35:43;11.80;99.90
19862;DHT22;10093;48.148;8.542;2023-09-30T03:38:10;11.80;99.90
19862;DHT22;10093;48.148;8.542;2023-09-30T03:40:36;11.70;99.90
19862;DHT22;10093;48.148;8.542;2023-09-30T03:43:04;11.70;99.90
19862;DHT22;10093;48.148;8.542;2023-09-30T03:45:32;11.60;99.90
19862;DHT22;10093;48.148;8.542;2023-09-30T03:47:58;11.60;99.90
19862;DHT22;10093;48.148;8.542;2023-09-30T03:50:24;11.40;99.90
19862;DHT22;10093;48.148;8.542;2023-09-30T03:52:50;11.20;99.90
19862;DHT22;10093;48.148;8.542;2023-09-30T03:55:16;11.10;99.90
19862;DHT22;10093;48.148;8.542;2023-09-30T03:57:47;11.20;99.90
19862;DHT22;10093;48.148;8.542;2023-09-30T04:00:13;11.20;99.90
19862;DHT22;10093;48.148;8.542;2023-09-30T04:02:41;11.10;99.90
19862;DHT22;10093;48.148;8.542;2023-09-30T04:05:08;11.00;99.90
19862;DHT22;10093;48.148;8.542;2023-09-30T04:07:36;11.20;99.90
19862;DHT22;10093;48.148;8.542;2023-09-30T04:10:02;11.40;99.90
19862;DHT22;10093;48.148;8.542;2023-09-30T04:12:29;11.20;99.90
19862;DHT22;10093;48.148;8.542;2023-09-30T04:14:58;11.10;99.90
19862;DHT22;10093;48.148;8.542;2023-09-30T04:17:23;11.10;99.90
19862;DHT22;10093;48.148;8.542;2023-09-30T04:19:49;11.20;99.90
19862;DHT22;10093;48.148;8.542;2023-09-30T04:22:17;11.20;99.90
19862;DHT22;10093;48.148;8.542;2023-09-30T04:24:43;11.40;99.90
19862;DHT22;10093;48.148;8.542;2023-09-30T04:27:08;11.30;99.90
19862;DHT22;10093;48.148;8.542;2023-09-30T04:29:34;11.30;99.90
19862;DHT22;10093;48.148;8.542;2023-09-30T04:32:00;11.20;99.90
19862;DHT22;10093;48.148;8.542;2023-09-30T04:34:26;11.40;99.90
19862;DHT22;10093;48.148;8.542;2023-09-30T04:36:53;11.40;99.90
19862;DHT22;10093;48.148;8.542;2023-09-30T04:39:19;11.40;99.90
19862;DHT22;10093;48.148;8.542;2023-09-30T04:41:45;11.30;99.90
19862;DHT22;10093;48.148;8.542;2023-09-30T04:44:12;11.20;99.90
19862;DHT22;10093;48.148;8.542;2023-09-30T04:46:37;11.20;99.90
19862;DHT22;10093;48.148;8.542;2023-09-30T04:49:13;11.10;99.90
19862;DHT22;10093;48.148;8.542;2023-09-30T04:51:39;11.00;99.90
19862;DHT22;10093;48.148;8.542;2023-09-30T04:54:05;10.90;99.90
19862;DHT22;10093;48.148;8.542;2023-09-30T04:56:34;11.00;99.90
19862;DHT22;10093;48.148;8.542;2023-09-30T04:59:00;11.20;99.90
19862;DHT22;10093;48.148;8.542;2023-09-30T05:01:26;11.30;99.90
19862;DHT22;10093;48.148;8.542;2023-09-30T05:03:52;11.40;99.90
19862;DHT22;10093;48.148;8.542;2023-09-30T05:06:18;11.30;99.90
19862;DHT22;10093;48.148;8.542;2023-09-30T05:08:44;11.20;99.90
19862;DHT22;10093;48.148;8.542;2023-09-30T05:11:10;11.30;99.90
19862;DHT22;10093;48.148;8.542;2023-09-30T05:13:35;11.30;99.90
19862;DHT22;10093;48.148;8.542;2023-09-30T05:16:02;11.30;99.90
19862;DHT22;10093;48.148;8.542;2023-09-30T05:18:28;11.30;99.90
19862;DHT22;10093;48.148;8.542;2023-09-30T05:20:55;11.30;99.90
19862;DHT22;10093;48.148;8.542;2023-09-30T05:23:21;11.30;99.90
19862;DHT22;10093;48.148;8.542;2023-09-30T05:25:46;11.40;99.90
19862;DHT22;10093;48.148;8.542;2023-09-30T05:28:12;11.40;99.90
19862;DHT22;10093;48.148;8.542;2023-09-30T05:30:39;11.30;99.90
19862;DHT22;10093;48.148;8.542;2023-09-30T05:33:06;11.10;99.90
19862;DHT22;10093;48.148;8.542;2023-09-30T05:35:32;11.00;99.90
19862;DHT22;10093;48.148;8.542;2023-09-30T05:37:58;10.90;99.90
19862;DHT22;10093;48.148;8.542;2023-09-30T05:40:24;11.00;99.90
19862;DHT22;10093;48.148;8.542;2023-09-30T05:42:56;11.10;99.90
19862;DHT22;10093;48.148;8.542;2023-09-30T05:45:26;11.00;99.90
19862;DHT22;10093;48.148;8.542;2023-09-30T05:47:53;11.00;99.90
19862;DHT22;10093;48.148;8.542;2023-09-30T05:50:20;11.00;99.90
19862;DHT22;10093;48.148;8.542;2023-09-30T05:52:55;11.00;99.90
19862;DHT22;10093;48.148;8.542;2023-09-30T05:55:21;11.10;99.90
19862;DHT22;10093;48.148;8.542;2023-09-30T05:57:51;11.20;99.90
19862;DHT22;10093;48.148;8.542;2023-09-30T06:00:20;11.50;99.90
19862;DHT22;10093;48.148;8.542;2023-09-30T06:02:49;11.60;99.90
19862;DHT22;10093;48.148;8.542;2023-09-30T06:05:17;11.70;99.90
19862;DHT22;10093;48.148;8.542;2023-09-30T06:07:47;11.70;99.90
19862;DHT22;10093;48.148;8.542;2023-09-30T06:10:12;12.00;99.90
19862;DHT22;10093;48.148;8.542;2023-09-30T06:12:41;12.10;99.90
19862;DHT22;10093;48.148;8.542;2023-09-30T06:15:07;12.40;99.90
19862;DHT22;10093;48.148;8.542;2023-09-30T06:17:33;12.50;99.90
19862;DHT22;10093;48.148;8.542;2023-09-30T06:19:59;12.80;99.90
19862;DHT22;10093;48.148;8.542;2023-09-30T06:22:32;13.10;99.90
19862;DHT22;10093;48.148;8.542;2023-09-30T06:24:58;13.50;99.90
19862;DHT22;10093;48.148;8.542;2023-09-30T06:27:23;13.60;99.90
19862;DHT22;10093;48.148;8.542;2023-09-30T06:29:49;13.70;99.90
19862;DHT22;10093;48.148;8.542;2023-09-30T06:32:15;13.60;99.90
19862;DHT22;10093;48.148;8.542;2023-09-30T06:34:40;13.50;99.90
19862;DHT22;10093;48.148;8.542;2023-09-30T06:37:06;13.50;99.90
19862;DHT22;10093;48.148;8.542;2023-09-30T06:39:33;13.40;99.90
19862;DHT22;10093;48.148;8.542;2023-09-30T06:41:59;13.30;99.90
19862;DHT22;10093;48.148;8.542;2023-09-30T06:44:25;13.30;99.90
19862;DHT22;10093;48.148;8.542;2023-09-30T06:46:51;13.40;99.90
19862;DHT22;10093;48.148;8.542;2023-09-30T06:49:16;13.40;99.90
19862;DHT22;10093;48.148;8.542;2023-09-30T06:51:42;13.50;99.90
19862;DHT22;10093;48.148;8.542;2023-09-30T06:54:07;13.50;99.90
19862;DHT22;10093;48.148;8.542;2023-09-30T06:56:33;13.30;99.90
19862;DHT22;10093;48.148;8.542;2023-09-30T06:58:59;13.20;99.90
19862;DHT22;10093;48.148;8.542;2023-09-30T07:01:25;13.30;99.90
19862;DHT22;10093;48.148;8.542;2023-09-30T07:03:50;13.10;99.90
19862;DHT22;10093;48.148;8.542;2023-09-30T07:06:26;13.30;99.90
19862;DHT22;10093;48.148;8.542;2023-09-30T07:08:52;13.50;99.90
19862;DHT22;10093;48.148;8.542;2023-09-30T07:11:27;13.40;99.90
19862;DHT22;10093;48.148;8.542;2023-09-30T07:13:53;13.60;99.90
19862;DHT22;10093;48.148;8.542;2023-09-30T07:16:19;14.00;99.90
19862;DHT22;10093;48.148;8.542;2023-09-30T07:18:44;14.30;99.90
19862;DHT22;10093;48.148;8.542;2023-09-30T07:21:11;14.80;99.90
19862;DHT22;10093;48.148;8.542;2023-09-30T07:23:37;15.20;99.90
19862;DHT22;10093;48.148;8.542;2023-09-30T07:26:02;15.60;99.90
19862;DHT22;10093;48.148;8.542;2023-09-30T07:28:28;16.00;99.90
19862;DHT22;10093;48.148;8.542;2023-09-30T07:30:54;16.30;99.90
19862;DHT22;10093;48.148;8.542;2023-09-30T07:33:20;16.50;99.90
19862;DHT22;10093;48.148;8.542;2023-09-30T07:35:46;16.50;99.90
19862;DHT22;10093;48.148;8.542;2023-09-30T07:38:12;16.70;99.90
19862;DHT22;10093;48.148;8.542;2023-09-30T07:40:37;16.40;99.90
19862;DHT22;10093;48.148;8.542;2023-09-30T07:43:03;16.50;99.90
19862;DHT22;10093;48.148;8.542;2023-09-30T07:45:29;17.10;99.90
19862;DHT22;10093;48.148;8.542;2023-09-30T07:47:55;17.40;99.90
19862;DHT22;10093;48.148;8.542;2023-09-30T07:50:20;17.90;99.90
19862;DHT22;10093;48.148;8.542;2023-09-30T07:52:46;18.30;99.90
19862;DHT22;10093;48.148;8.542;2023-09-30T07:55:12;18.30;99.90
19862;DHT22;10093;48.148;8.542;2023-09-30T07:57:39;18.30;99.90
19862;DHT22;10093;48.148;8.542;2023-09-30T08:00:05;18.00;99.90
19862;DHT22;10093;48.148;8.542;2023-09-30T08:02:34;18.10;99.90
19862;DHT22;10093;48.148;8.542;2023-09-30T08:05:00;18.30;99.90
19862;DHT22;10093;48.148;8.542;2023-09-30T08:07:26;18.30;99.90
19862;DHT22;10093;48.148;8.542;2023-09-30T08:09:52;18.20;99.90
19862;DHT22;10093;48.148;8.542;2023-09-30T08:12:18;18.70;99.90
19862;DHT22;10093;48.148;8.542;2023-09-30T08:14:43;19.30;99.90
19862;DHT22;10093;48.148;8.542;2023-09-30T08:17:12;19.80;99.90
19862;DHT22;10093;48.148;8.542;2023-09-30T08:19:37;20.10;99.90
19862;DHT22;10093;48.148;8.542;2023-09-30T08:22:03;20.00;99.90
19862;DHT22;10093;48.148;8.542;2023-09-30T08:24:31;20.00;99.90
19862;DHT22;10093;48.148;8.542;2023-09-30T08:26:56;20.20;99.90
19862;DHT22;10093;48.148;8.542;2023-09-30T08:29:22;20.30;99.90
19862;DHT22;10093;48.148;8.542;2023-09-30T08:31:48;19.90;99.90
19862;DHT22;10093;48.148;8.542;2023-09-30T08:34:16;20.00;99.90
19862;DHT22;10093;48.148;8.542;2023-09-30T08:36:42;20.50;99.90
19862;DHT22;10093;48.148;8.542;2023-09-30T08:39:08;21.20;99.90
19862;DHT22;10093;48.148;8.542;2023-09-30T08:41:36;21.90;99.90
19862;DHT22;10093;48.148;8.542;2023-09-30T08:44:03;22.40;99.90
19862;DHT22;10093;48.148;8.542;2023-09-30T08:46:33;22.20;99.90
19862;DHT22;10093;48.148;8.542;2023-09-30T08:49:03;22.30;99.90
19862;DHT22;10093;48.148;8.542;2023-09-30T08:51:30;22.50;99.90
19862;DHT22;10093;48.148;8.542;2023-09-30T08:53:57;22.70;99.90
19862;DHT22;10093;48.148;8.542;2023-09-30T08:56:26;22.70;99.90
19862;DHT22;10093;48.148;8.542;2023-09-30T08:58:57;22.20;99.90
19862;DHT22;10093;48.148;8.542;2023-09-30T09:01:25;21.60;99.90
19862;DHT22;10093;48.148;8.542;2023-09-30T09:03:51;20.80;99.90
19862;DHT22;10093;48.148;8.542;2023-09-30T09:06:22;21.00;99.90
19862;DHT22;10093;48.148;8.542;2023-09-30T09:08:48;21.60;99.90
19862;DHT22;10093;48.148;8.542;2023-09-30T09:11:14;21.90;99.90
19862;DHT22;10093;48.148;8.542;2023-09-30T09:13:48;20.80;99.90
19862;DHT22;10093;48.148;8.542;2023-09-30T09:16:16;20.20;99.90
19862;DHT22;10093;48.148;8.542;2023-09-30T09:18:43;21.10;99.90
19862;DHT22;10093;48.148;8.542;2023-09-30T09:23:46;22.40;99.90
19862;DHT22;10093;48.148;8.542;2023-09-30T09:26:26;22.30;99.90
19862;DHT22;10093;48.148;8.542;2023-09-30T09:29:00;21.60;99.90
19862;DHT22;10093;48.148;8.542;2023-09-30T09:31:28;22.80;99.90
19862;DHT22;10093;48.148;8.542;2023-09-30T09:33:54;21.90;99.90
19862;DHT22;10093;48.148;8.542;2023-09-30T09:36:20;23.10;99.90
19862;DHT22;10093;48.148;8.542;2023-09-30T09:38:50;21.90;99.90
19862;DHT22;10093;48.148;8.542;2023-09-30T09:41:20;23.90;99.90
19862;DHT22;10093;48.148;8.542;2023-09-30T09:43:48;25.00;99.90
19862;DHT22;10093;48.148;8.542;2023-09-30T09:46:15;25.30;99.90
19862;DHT22;10093;48.148;8.542;2023-09-30T09:48:41;25.90;99.90
19862;DHT22;10093;48.148;8.542;2023-09-30T09:51:09;26.10;99.90
19862;DHT22;10093;48.148;8.542;2023-09-30T09:53:36;25.40;99.90
19862;DHT22;10093;48.148;8.542;2023-09-30T09:56:07;24.50;99.90
19862;DHT22;10093;48.148;8.542;2023-09-30T09:58:36;22.40;99.90
19862;DHT22;10093;48.148;8.542;2023-09-30T10:01:05;22.20;99.90
19862;DHT22;10093;48.148;8.542;2023-09-30T10:03:31;21.80;99.90
19862;DHT22;10093;48.148;8.542;2023-09-30T10:05:58;22.90;99.90
19862;DHT22;10093;48.148;8.542;2023-09-30T10:08:33;23.60;99.90
19862;DHT22;10093;48.148;8.542;2023-09-30T10:11:01;22.80;99.90
19862;DHT22;10093;48.148;8.542;2023-09-30T10:13:52;23.50;99.90
19862;DHT22;10093;48.148;8.542;2023-09-30T10:19:12;24.10;99.90
19862;DHT22;10093;48.148;8.542;2023-09-30T10:21:38;22.60;99.90
19862;DHT22;10093;48.148;8.542;2023-09-30T10:30:06;23.20;99.90
19862;DHT22;10093;48.148;8.542;2023-09-30T10:35:42;26.40;99.90
19862;DHT22;10093;48.148;8.542;2023-09-30T10:40:53;25.50;99.90
19862;DHT22;10093;48.148;8.542;2023-09-30T10:43:38;25.60;99.90
19862;DHT22;10093;48.148;8.542;2023-09-30T10:48:51;24.60;99.90
19862;DHT22;10093;48.148;8.542;2023-09-30T10:51:18;24.10;99.90
19862;DHT22;10093;48.148;8.542;2023-09-30T10:53:49;23.90;99.90
19862;DHT22;10093;48.148;8.542;2023-09-30T10:56:19;22.70;99.90
19862;DHT22;10093;48.148;8.542;2023-09-30T11:01:13;21.30;99.90
19862;DHT22;10093;48.148;8.542;2023-09-30T11:03:40;21.20;99.90
19862;DHT22;10093;48.148;8.542;2023-09-30T11:06:06;21.30;99.90
19862;DHT22;10093;48.148;8.542;2023-09-30T11:08:32;21.10;99.90
19862;DHT22;10093;48.148;8.542;2023-09-30T11:10:58;21.80;99.90
19862;DHT22;10093;48.148;8.542;2023-09-30T11:13:31;22.60;99.90
19862;DHT22;10093;48.148;8.542;2023-09-30T11:16:02;22.90;99.90
19862;DHT22;10093;48.148;8.542;2023-09-30T11:18:29;22.30;99.90
19862;DHT22;10093;48.148;8.542;2023-09-30T11:21:07;22.90;99.90
19862;DHT22;10093;48.148;8.542;2023-09-30T11:23:33;21.90;99.90
19862;DHT22;10093;48.148;8.542;2023-09-30T11:25:59;21.40;99.90
19862;DHT22;10093;48.148;8.542;2023-09-30T11:28:25;22.30;99.90
19862;DHT22;10093;48.148;8.542;2023-09-30T11:30:57;22.90;99.90
19862;DHT22;10093;48.148;8.542;2023-09-30T11:33:23;24.00;99.90
19862;DHT22;10093;48.148;8.542;2023-09-30T11:38:23;24.20;99.90
19862;DHT22;10093;48.148;8.542;2023-09-30T11:41:05;23.30;99.90
19862;DHT22;10093;48.148;8.542;2023-09-30T11:43:32;20.50;99.90
19862;DHT22;10093;48.148;8.542;2023-09-30T11:46:08;19.80;99.90
19862;DHT22;10093;48.148;8.542;2023-09-30T11:48:38;20.20;99.90
19862;DHT22;10093;48.148;8.542;2023-09-30T11:51:04;21.60;99.90
19862;DHT22;10093;48.148;8.542;2023-09-30T11:53:30;23.90;99.90
19862;DHT22;10093;48.148;8.542;2023-09-30T11:55:59;24.90;99.90
19862;DHT22;10093;48.148;8.542;2023-09-30T11:58:26;26.70;99.90
19862;DHT22;10093;48.148;8.542;2023-09-30T12:00:57;27.60;99.90
19862;DHT22;10093;48.148;8.542;2023-09-30T12:03:23;28.00;99.90
19862;DHT22;10093;48.148;8.542;2023-09-30T12:05:49;27.80;99.90
19862;DHT22;10093;48.148;8.542;2023-09-30T12:08:15;27.40;99.90
19862;DHT22;10093;48.148;8.542;2023-09-30T12:10:41;26.40;99.90
19862;DHT22;10093;48.148;8.542;2023-09-30T12:13:06;25.20;99.90
19862;DHT22;10093;48.148;8.542;2023-09-30T12:15:32;24.80;99.90
19862;DHT22;10093;48.148;8.542;2023-09-30T12:17:57;24.60;99.90
19862;DHT22;10093;48.148;8.542;2023-09-30T12:20:23;23.50;99.90
19862;DHT22;10093;48.148;8.542;2023-09-30T12:22:50;23.70;99.90
19862;DHT22;10093;48.148;8.542;2023-09-30T12:25:18;24.00;99.90
19862;DHT22;10093;48.148;8.542;2023-09-30T12:27:47;24.70;99.90
19862;DHT22;10093;48.148;8.542;2023-09-30T12:30:13;23.50;99.90
19862;DHT22;10093;48.148;8.542;2023-09-30T12:32:39;21.90;99.90
19862;DHT22;10093;48.148;8.542;2023-09-30T12:35:05;20.80;99.90
19862;DHT22;10093;48.148;8.542;2023-09-30T12:37:31;20.70;99.90
19862;DHT22;10093;48.148;8.542;2023-09-30T12:39:58;20.10;99.90
19862;DHT22;10093;48.148;8.542;2023-09-30T12:42:23;19.60;99.90
19862;DHT22;10093;48.148;8.542;2023-09-30T12:44:49;19.90;99.90
19862;DHT22;10093;48.148;8.542;2023-09-30T12:47:15;20.40;99.90
19862;DHT22;10093;48.148;8.542;2023-09-30T12:49:40;20.50;99.90
19862;DHT22;10093;48.148;8.542;2023-09-30T12:52:06;20.80;99.90
19862;DHT22;10093;48.148;8.542;2023-09-30T12:54:32;21.40;99.90
19862;DHT22;10093;48.148;8.542;2023-09-30T12:56:59;22.20;99.90
19862;DHT22;10093;48.148;8.542;2023-09-30T12:59:25;21.60;99.90
19862;DHT22;10093;48.148;8.542;2023-09-30T13:01:51;22.40;99.90
19862;DHT22;10093;48.148;8.542;2023-09-30T13:04:17;22.70;99.90
19862;DHT22;10093;48.148;8.542;2023-09-30T13:06:44;22.10;99.90
19862;DHT22;10093;48.148;8.542;2023-09-30T13:09:10;20.70;99.90
19862;DHT22;10093;48.148;8.542;2023-09-30T13:11:37;20.30;99.90
19862;DHT22;10093;48.148;8.542;2023-09-30T13:14:03;20.70;99.90
19862;DHT22;10093;48.148;8.542;2023-09-30T13:16:29;21.30;99.90
19862;DHT22;10093;48.148;8.542;2023-09-30T13:18:54;21.40;99.90
19862;DHT22;10093;48.148;8.542;2023-09-30T13:21:20;21.10;99.90
19862;DHT22;10093;48.148;8.542;2023-09-30T13:23:45;21.10;99.90
19862;DHT22;10093;48.148;8.542;2023-09-30T13:26:11;20.80;99.90
19862;DHT22;10093;48.148;8.542;2023-09-30T13:28:37;21.20;99.90
19862;DHT22;10093;48.148;8.542;2023-09-30T13:31:02;21.10;99.90
19862;DHT22;10093;48.148;8.542;2023-09-30T13:33:28;21.30;99.90
19862;DHT22;10093;48.148;8.542;2023-09-30T13:35:54;21.10;99.90
19862;DHT22;10093;48.148;8.542;2023-09-30T13:38:21;22.10;99.90
19862;DHT22;10093;48.148;8.542;2023-09-30T13:40:46;23.00;99.90
19862;DHT22;10093;48.148;8.542;2023-09-30T13:43:12;22.30;99.90
19862;DHT22;10093;48.148;8.542;2023-09-30T13:45:38;22.10;99.90
19862;DHT22;10093;48.148;8.542;2023-09-30T13:48:04;22.00;99.90
19862;DHT22;10093;48.148;8.542;2023-09-30T13:50:30;23.00;99.90
19862;DHT22;10093;48.148;8.542;2023-09-30T13:52:55;22.90;99.90
19862;DHT22;10093;48.148;8.542;2023-09-30T13:55:21;22.20;99.90
19862;DHT22;10093;48.148;8.542;2023-09-30T13:57:47;22.10;99.90
19862;DHT22;10093;48.148;8.542;2023-09-30T14:00:14;21.50;99.90
19862;DHT22;10093;48.148;8.542;2023-09-30T14:02:39;21.30;99.90
19862;DHT22;10093;48.148;8.542;2023-09-30T14:05:06;20.80;99.90
19862;DHT22;10093;48.148;8.542;2023-09-30T14:07:35;21.60;99.90
19862;DHT22;10093;48.148;8.542;2023-09-30T14:10:00;22.30;99.90
19862;DHT22;10093;48.148;8.542;2023-09-30T14:12:26;22.70;99.90
19862;DHT22;10093;48.148;8.542;2023-09-30T14:14:52;23.40;99.90
19862;DHT22;10093;48.148;8.542;2023-09-30T14:17:18;23.90;99.90
19862;DHT22;10093;48.148;8.542;2023-09-30T14:19:43;24.10;99.90
19862;DHT22;10093;48.148;8.542;2023-09-30T14:22:09;24.70;99.90
19862;DHT22;10093;48.148;8.542;2023-09-30T14:24:35;23.70;99.90
19862;DHT22;10093;48.148;8.542;2023-09-30T14:27:04;24.20;99.90
19862;DHT22;10093;48.148;8.542;2023-09-30T14:29:31;23.70;99.90
19862;DHT22;10093;48.148;8.542;2023-09-30T14:31:57;21.80;99.90
19862;DHT22;10093;48.148;8.542;2023-09-30T14:34:23;21.10;99.90
19862;DHT22;10093;48.148;8.542;2023-09-30T14:36:49;20.60;99.90
19862;DHT22;10093;48.148;8.542;2023-09-30T14:39:15;20.40;99.90
19862;DHT22;10093;48.148;8.542;2023-09-30T14:41:45;20.60;99.90
19862;DHT22;10093;48.148;8.542;2023-09-30T14:44:11;20.70;99.90
19862;DHT22;10093;48.148;8.542;2023-09-30T14:46:38;20.80;99.90
19862;DHT22;10093;48.148;8.542;2023-09-30T14:49:04;21.30;99.90
19862;DHT22;10093;48.148;8.542;2023-09-30T14:51:32;21.70;99.90
19862;DHT22;10093;48.148;8.542;2023-09-30T14:53:57;21.00;99.90
19862;DHT22;10093;48.148;8.542;2023-09-30T14:56:23;20.60;99.90
19862;DHT22;10093;48.148;8.542;2023-09-30T14:58:49;20.60;99.90
19862;DHT22;10093;48.148;8.542;2023-09-30T15:01:14;19.80;99.90
19862;DHT22;10093;48.148;8.542;2023-09-30T15:03:40;19.70;99.90
19862;DHT22;10093;48.148;8.542;2023-09-30T15:06:06;19.50;99.90
19862;DHT22;10093;48.148;8.542;2023-09-30T15:08:32;19.80;99.90
19862;DHT22;10093;48.148;8.542;2023-09-30T15:11:02;20.60;99.90
19862;DHT22;10093;48.148;8.542;2023-09-30T15:13:29;20.90;99.90
19862;DHT22;10093;48.148;8.542;2023-09-30T15:15:55;20.60;99.90
19862;DHT22;10093;48.148;8.542;2023-09-30T15:18:20;21.10;99.90
19862;DHT22;10093;48.148;8.542;2023-09-30T15:20:49;22.00;99.90
19862;DHT22;10093;48.148;8.542;2023-09-30T15:23:15;21.10;99.90
19862;DHT22;10093;48.148;8.542;2023-09-30T15:25:42;20.50;99.90
19862;DHT22;10093;48.148;8.542;2023-09-30T15:28:08;21.10;99.90
19862;DHT22;10093;48.148;8.542;2023-09-30T15:30:34;21.60;99.90
19862;DHT22;10093;48.148;8.542;2023-09-30T15:33:00;22.00;99.90
19862;DHT22;10093;48.148;8.542;2023-09-30T15:35:27;21.90;99.90
19862;DHT22;10093;48.148;8.542;2023-09-30T15:37:53;22.00;99.90
19862;DHT22;10093;48.148;8.542;2023-09-30T15:40:19;21.60;99.90
19862;DHT22;10093;48.148;8.542;2023-09-30T15:42:44;21.00;99.90
19862;DHT22;10093;48.148;8.542;2023-09-30T15:45:11;21.60;99.90
19862;DHT22;10093;48.148;8.542;2023-09-30T15:47:38;21.70;99.90
19862;DHT22;10093;48.148;8.542;2023-09-30T15:50:03;22.10;99.90
19862;DHT22;10093;48.148;8.542;2023-09-30T15:52:29;22.10;99.90